createdAt,value
2017-05-05T00:00:12.032Z,29.60
2017-05-05T00:02:39.891Z,29.85
2017-05-05T00:05:07.293Z,31.35
2017-05-05T00:07:34.715Z,28.83
2017-05-05T00:10:02.846Z,30.78
2017-05-05T00:12:30.457Z,32.27
2017-05-05T00:15:01.009Z,27.73
2017-05-05T00:17:28.411Z,28.57
2017-05-05T00:19:55.960Z,26.10
2017-05-05T00:22:23.323Z,26.43
2017-05-05T00:24:50.925Z,22.77
2017-05-05T00:27:18.519Z,24.33
2017-05-05T00:29:45.879Z,20.83
2017-05-05T00:32:13.255Z,21.87
2017-05-05T00:34:40.705Z,18.32
2017-05-05T00:37:08.272Z,17.35
2017-05-05T00:39:36.198Z,15.48
2017-05-05T00:42:03.624Z,14.82
2017-05-05T00:44:31.792Z,13.27
2017-05-05T00:46:59.906Z,11.97
2017-05-05T00:49:27.358Z,11.03
2017-05-05T00:51:54.824Z,10.50
2017-05-05T00:54:22.210Z,9.68
2017-05-05T00:56:49.753Z,9.72
2017-05-05T00:59:20.438Z,9.97
2017-05-05T01:01:47.839Z,9.07
2017-05-05T01:04:15.261Z,9.82
2017-05-05T01:06:46.436Z,9.63
2017-05-05T01:09:13.958Z,9.08
2017-05-05T01:11:41.466Z,8.72
2017-05-05T01:14:09.062Z,8.50
2017-05-05T01:16:37.247Z,7.48
2017-05-05T01:19:04.737Z,8.03
2017-05-05T01:21:32.134Z,7.32
2017-05-05T01:23:59.486Z,10.38
2017-05-05T01:26:26.915Z,8.63
2017-05-05T01:28:54.465Z,7.67
2017-05-05T01:31:21.837Z,7.55
2017-05-05T01:33:49.246Z,7.68
2017-05-05T01:36:16.606Z,7.30
2017-05-05T01:38:43.994Z,8.80
2017-05-05T01:41:11.387Z,9.32
2017-05-05T01:43:40.093Z,6.37
2017-05-05T01:46:07.557Z,7.47
2017-05-05T01:48:34.974Z,7.03
2017-05-05T01:51:02.337Z,8.17
2017-05-05T01:53:29.763Z,7.68
2017-05-05T01:55:57.154Z,8.37
2017-05-05T01:58:24.574Z,8.75
2017-05-05T02:00:53.993Z,8.92
2017-05-05T02:03:21.390Z,9.53
2017-05-05T02:05:48.768Z,8.65
2017-05-05T02:08:16.141Z,5.80
2017-05-05T02:10:44.111Z,8.13
2017-05-05T02:13:11.527Z,7.13
2017-05-05T02:15:38.887Z,6.35
2017-05-05T02:18:06.266Z,5.30
2017-05-05T02:20:40.000Z,5.83
2017-05-05T02:23:07.358Z,6.75
2017-05-05T02:25:34.704Z,6.83
2017-05-05T02:28:02.074Z,7.12
2017-05-05T02:30:30.165Z,7.52
2017-05-05T02:32:57.558Z,7.00
2017-05-05T02:35:24.921Z,7.55
2017-05-05T02:37:53.080Z,8.07
2017-05-05T02:40:20.446Z,8.17
2017-05-05T02:42:48.033Z,7.40
2017-05-05T02:45:15.425Z,7.55
2017-05-05T02:47:43.636Z,7.42
2017-05-05T02:50:11.013Z,7.43
2017-05-05T02:52:39.174Z,6.92
2017-05-05T02:55:07.305Z,8.07
2017-05-05T02:57:34.683Z,7.78
2017-05-05T03:00:02.343Z,7.68
2017-05-05T03:02:29.962Z,7.98
2017-05-05T03:04:57.367Z,8.00
2017-05-05T03:07:24.816Z,8.15
2017-05-05T03:09:52.212Z,7.95
2017-05-05T03:12:20.339Z,8.33
2017-05-05T03:14:49.770Z,8.68
2017-05-05T03:17:17.150Z,8.30
2017-05-05T03:19:44.547Z,9.15
2017-05-05T03:22:11.971Z,10.37
2017-05-05T03:24:39.373Z,10.75
2017-05-05T03:27:06.773Z,10.95
2017-05-05T03:29:34.237Z,10.97
2017-05-05T03:32:01.642Z,11.75
2017-05-05T03:34:29.054Z,12.98
2017-05-05T03:36:56.470Z,12.63
2017-05-05T03:39:24.206Z,12.07
2017-05-05T03:41:51.603Z,11.25
2017-05-05T03:44:19.371Z,11.48
2017-05-05T03:46:46.732Z,10.35
2017-05-05T03:49:14.387Z,10.20
2017-05-05T03:51:42.522Z,9.33
2017-05-05T03:54:10.097Z,10.27
2017-05-05T03:56:37.495Z,13.72
2017-05-05T03:59:05.331Z,12.50
2017-05-05T04:01:33.506Z,11.48
2017-05-05T04:04:00.935Z,13.73
2017-05-05T04:06:28.387Z,14.25
2017-05-05T04:08:55.787Z,12.07
2017-05-05T04:11:23.908Z,12.15
2017-05-05T04:13:51.369Z,11.58
2017-05-05T04:16:18.785Z,11.68
2017-05-05T04:18:46.196Z,12.70
2017-05-05T04:21:15.390Z,12.02
2017-05-05T04:23:42.731Z,11.97
2017-05-05T04:26:11.956Z,11.87
2017-05-05T04:32:16.433Z,13.48
2017-05-05T04:34:44.528Z,13.55
2017-05-05T04:37:11.964Z,12.92
2017-05-05T04:39:39.330Z,15.15
2017-05-05T04:42:06.669Z,13.62
2017-05-05T04:44:34.168Z,13.67
2017-05-05T04:47:01.570Z,15.03
2017-05-05T04:49:29.516Z,13.20
2017-05-05T04:51:56.843Z,14.90
2017-05-05T04:54:24.300Z,16.07
2017-05-05T04:56:51.633Z,16.37
2017-05-05T04:59:18.975Z,15.92
2017-05-05T05:01:46.516Z,17.20
2017-05-05T05:04:13.861Z,17.53
2017-05-05T05:06:41.239Z,15.03
2017-05-05T05:09:09.525Z,14.73
2017-05-05T05:11:37.673Z,15.23
2017-05-05T05:14:05.822Z,15.03
2017-05-05T05:16:33.962Z,14.13
2017-05-05T05:19:01.605Z,13.57
2017-05-05T05:21:30.214Z,17.48
2017-05-05T05:23:58.967Z,13.28
2017-05-05T05:26:27.997Z,13.37
2017-05-05T05:29:27.968Z,15.10
2017-05-05T05:31:56.940Z,14.40
2017-05-05T05:34:25.608Z,12.73
2017-05-05T05:36:59.157Z,14.52
2017-05-05T05:39:28.084Z,13.52
2017-05-05T05:42:01.106Z,12.90
2017-05-05T05:44:30.102Z,14.87
2017-05-05T05:46:58.313Z,14.77
2017-05-05T05:49:26.753Z,13.33
2017-05-05T05:51:55.523Z,15.92
2017-05-05T05:54:23.796Z,14.48
2017-05-05T05:56:51.311Z,14.02
2017-05-05T05:59:18.661Z,13.27
2017-05-05T06:01:46.778Z,14.98
2017-05-05T06:04:14.106Z,15.33
2017-05-05T06:06:41.566Z,13.37
2017-05-05T06:09:11.770Z,16.45
2017-05-05T06:11:39.111Z,14.82
2017-05-05T06:14:07.185Z,15.40
2017-05-05T06:16:35.900Z,15.25
2017-05-05T06:19:03.957Z,13.22
2017-05-05T06:21:32.248Z,13.43
2017-05-05T06:23:59.581Z,13.53
2017-05-05T06:26:27.635Z,13.00
2017-05-05T06:28:56.716Z,13.75
2017-05-05T06:31:24.068Z,12.13
2017-05-05T06:33:51.416Z,12.47
2017-05-05T06:39:54.538Z,12.08
2017-05-05T06:42:22.615Z,12.07
2017-05-05T06:44:50.726Z,12.22
2017-05-05T06:47:18.136Z,12.45
2017-05-05T06:49:45.484Z,11.03
2017-05-05T06:52:12.898Z,12.52
2017-05-05T06:54:40.244Z,11.98
2017-05-05T06:57:07.594Z,11.53
2017-05-05T06:59:34.938Z,10.70
2017-05-05T07:02:02.269Z,10.48
2017-05-05T07:04:29.621Z,11.26
2017-05-05T07:06:57.712Z,10.00
2017-05-05T07:09:25.087Z,10.86
2017-05-05T07:11:53.055Z,9.76
2017-05-05T07:14:20.428Z,10.36
2017-05-05T07:16:47.949Z,9.86
2017-05-05T07:19:15.324Z,9.12
2017-05-05T07:21:42.672Z,8.26
2017-05-05T07:24:10.749Z,9.94
2017-05-05T07:26:38.341Z,9.52
2017-05-05T07:29:05.658Z,8.54
2017-05-05T07:31:33.065Z,8.90
2017-05-05T07:34:00.428Z,8.88
2017-05-05T07:36:27.754Z,9.56
2017-05-05T07:38:55.412Z,8.00
2017-05-05T07:41:22.855Z,7.66
2017-05-05T07:43:50.737Z,8.98
2017-05-05T07:46:18.099Z,9.12
2017-05-05T07:48:45.478Z,7.68
2017-05-05T07:51:12.952Z,8.68
2017-05-05T07:53:40.389Z,7.60
2017-05-05T07:56:08.536Z,8.46
2017-05-05T07:58:35.903Z,8.62
2017-05-05T08:01:06.114Z,7.68
2017-05-05T08:03:33.473Z,8.46
2017-05-05T08:06:00.824Z,8.92
2017-05-05T08:08:28.201Z,9.12
2017-05-05T08:10:55.844Z,8.38
2017-05-05T08:13:23.621Z,8.96
2017-05-05T08:15:50.951Z,8.60
2017-05-05T08:18:18.267Z,12.54
2017-05-05T08:20:50.728Z,51.56
2017-05-05T08:23:18.138Z,11.12
2017-05-05T08:25:45.490Z,8.00
2017-05-05T08:28:12.850Z,8.72
2017-05-05T08:30:40.208Z,8.24
2017-05-05T08:33:08.006Z,9.04
2017-05-05T08:35:34.968Z,8.96
2017-05-05T08:38:02.343Z,8.24
2017-05-05T08:40:29.676Z,9.08
2017-05-05T08:42:57.068Z,8.90
2017-05-05T08:45:24.400Z,8.64
2017-05-05T08:47:51.798Z,8.06
2017-05-05T08:50:19.235Z,57.34
2017-05-05T08:52:46.613Z,38.66
2017-05-05T08:55:14.005Z,8.64
2017-05-05T08:57:41.357Z,7.50
2017-05-05T09:00:08.690Z,8.18
2017-05-05T09:02:36.817Z,7.22
2017-05-05T09:05:04.133Z,8.60
2017-05-05T09:07:31.597Z,37.96
2017-05-05T09:09:59.013Z,56.68
2017-05-05T09:12:26.442Z,8.68
2017-05-05T09:14:53.816Z,14.50
2017-05-05T09:17:22.796Z,116.54
2017-05-05T09:19:50.154Z,193.78
2017-05-05T09:22:17.707Z,8.64
2017-05-05T09:24:45.036Z,162.48
2017-05-05T09:27:12.400Z,9.64
2017-05-05T09:29:39.772Z,8.82
2017-05-05T09:32:07.149Z,7.98
2017-05-05T09:34:34.626Z,7.40
2017-05-05T09:37:02.778Z,8.04
2017-05-05T09:39:30.281Z,6.78
2017-05-05T09:41:57.734Z,6.70
2017-05-05T09:44:25.789Z,7.00
2017-05-05T09:46:53.155Z,6.70
2017-05-05T09:49:20.485Z,6.46
2017-05-05T09:51:48.579Z,7.68
2017-05-05T09:54:17.452Z,7.84
2017-05-05T09:56:44.829Z,7.94
2017-05-05T09:59:12.222Z,7.40
2017-05-05T10:01:39.689Z,7.88
2017-05-05T10:04:07.136Z,7.48
2017-05-05T10:06:34.501Z,7.20
2017-05-05T10:09:01.973Z,7.14
2017-05-05T10:11:30.100Z,9.24
2017-05-05T10:13:57.460Z,8.28
2017-05-05T10:16:24.917Z,31.12
2017-05-05T10:18:52.398Z,293.90
2017-05-05T10:21:19.731Z,11.70
2017-05-05T10:23:48.046Z,7.68
2017-05-05T10:26:16.140Z,7.38
2017-05-05T10:28:44.259Z,6.92
2017-05-05T10:31:11.581Z,7.10
2017-05-05T10:33:38.990Z,10.76
2017-05-05T10:36:06.381Z,7.94
2017-05-05T10:38:33.781Z,6.90
2017-05-05T10:41:02.081Z,7.56
2017-05-05T10:43:29.474Z,6.98
2017-05-05T10:45:57.555Z,6.76
2017-05-05T10:48:24.902Z,7.64
2017-05-05T10:50:52.324Z,6.38
2017-05-05T10:53:19.823Z,8.22
2017-05-05T10:55:47.718Z,31.08
2017-05-05T10:58:15.554Z,105.72
2017-05-05T11:00:42.913Z,8.54
2017-05-05T11:03:10.613Z,7.44
2017-05-05T11:05:38.095Z,9.94
2017-05-05T11:08:05.490Z,1999.90
2017-05-05T11:10:39.050Z,1999.90
2017-05-05T11:13:07.167Z,1999.90
2017-05-05T11:15:34.544Z,1999.90
2017-05-05T11:18:02.451Z,1999.90
2017-05-05T11:20:30.729Z,16.86
2017-05-05T11:22:58.804Z,1999.90
2017-05-05T11:25:26.928Z,13.40
2017-05-05T11:27:54.300Z,9.82
2017-05-05T11:30:22.414Z,1999.90
2017-05-05T11:32:50.108Z,1999.90
2017-05-05T11:35:17.456Z,1999.90
2017-05-05T11:37:44.785Z,1999.90
2017-05-05T11:40:12.202Z,1999.90
2017-05-05T11:42:39.554Z,1999.90
2017-05-05T11:45:07.002Z,1999.90
2017-05-05T11:47:34.399Z,1999.90
2017-05-05T11:50:01.918Z,1999.90
2017-05-05T11:52:31.359Z,8.50
2017-05-05T11:55:00.060Z,1999.90
2017-05-05T11:57:27.644Z,1999.90
2017-05-05T11:59:54.996Z,11.16
2017-05-05T12:02:22.366Z,10.14
2017-05-05T12:04:50.360Z,1999.90
2017-05-05T12:07:18.533Z,1999.90
2017-05-05T12:09:46.612Z,1999.90
2017-05-05T12:12:14.689Z,1999.90
2017-05-05T12:14:42.759Z,1999.90
2017-05-05T12:17:10.870Z,1999.90
2017-05-05T12:19:38.201Z,1999.90
2017-05-05T12:22:06.521Z,1999.90
2017-05-05T12:24:33.915Z,1999.90
2017-05-05T12:27:01.320Z,1999.90
2017-05-05T12:29:28.688Z,1999.90
2017-05-05T12:31:56.863Z,1999.90
2017-05-05T12:34:24.183Z,1999.90
2017-05-05T12:36:51.668Z,1999.90
2017-05-05T12:39:19.043Z,1999.90
2017-05-05T12:41:47.233Z,1999.90
2017-05-05T12:44:14.634Z,17.74
2017-05-05T12:46:42.137Z,10.06
2017-05-05T12:49:09.581Z,7.42
2017-05-05T12:51:37.800Z,7.84
2017-05-05T12:54:05.383Z,4.48
2017-05-05T12:56:32.737Z,3.98
2017-05-05T12:59:00.406Z,4.10
2017-05-05T13:01:27.848Z,4.68
2017-05-05T13:03:55.163Z,4.32
2017-05-05T13:06:23.970Z,4.14
2017-05-05T13:08:51.534Z,4.50
2017-05-05T13:11:18.857Z,3.98
2017-05-05T13:13:47.047Z,4.20
2017-05-05T13:16:15.127Z,4.52
2017-05-05T13:18:42.477Z,3.62
2017-05-05T13:21:10.526Z,4.14
2017-05-05T13:23:38.613Z,4.44
2017-05-05T13:26:06.016Z,6.60
2017-05-05T13:28:33.342Z,4.52
2017-05-05T13:31:00.724Z,4.92
2017-05-05T13:33:28.078Z,4.18
2017-05-05T13:35:55.550Z,5.60
2017-05-05T13:38:22.978Z,4.00
2017-05-05T13:40:52.171Z,4.30
2017-05-05T13:43:19.858Z,4.74
2017-05-05T13:45:47.914Z,3.84
2017-05-05T13:48:15.873Z,4.16
2017-05-05T13:50:48.066Z,4.98
2017-05-05T13:53:16.325Z,4.10
2017-05-05T13:55:44.401Z,3.80
2017-05-05T13:58:12.952Z,4.10
2017-05-05T14:00:42.003Z,8.66
2017-05-05T14:03:11.388Z,150.56
2017-05-05T14:05:40.514Z,5.60
2017-05-05T14:08:10.057Z,4.44
2017-05-05T14:10:38.309Z,4.60
2017-05-05T14:13:06.069Z,4.94
2017-05-05T14:15:33.621Z,8.90
2017-05-05T14:18:01.980Z,7.42
2017-05-05T14:20:30.171Z,6.50
2017-05-05T14:22:58.385Z,6.36
2017-05-05T14:25:26.966Z,6.36
2017-05-05T14:27:55.254Z,5.64
2017-05-05T14:30:22.908Z,6.02
2017-05-05T14:32:51.415Z,7.02
2017-05-05T14:35:23.263Z,6.44
2017-05-05T14:37:51.461Z,4.92
2017-05-05T14:40:20.782Z,6.28
2017-05-05T14:42:48.231Z,5.78
2017-05-05T14:45:16.086Z,6.72
2017-05-05T14:47:43.785Z,5.72
2017-05-05T14:50:12.365Z,5.56
2017-05-05T14:56:08.303Z,7.60
2017-05-05T14:58:37.187Z,6.24
2017-05-05T15:01:07.051Z,6.06
2017-05-05T15:03:36.511Z,6.20
2017-05-05T15:06:07.318Z,5.92
2017-05-05T15:08:36.011Z,5.28
2017-05-05T15:11:06.154Z,6.08
2017-05-05T15:13:33.880Z,5.90
2017-05-05T15:16:02.705Z,5.28
2017-05-05T15:18:30.521Z,6.14
2017-05-05T15:21:00.662Z,6.52
2017-05-05T15:23:29.826Z,8.42
2017-05-05T15:25:57.283Z,8.08
2017-05-05T15:28:25.305Z,7.76
2017-05-05T15:30:53.819Z,6.98
2017-05-05T15:33:23.085Z,6.50
2017-05-05T15:35:52.409Z,6.84
2017-05-05T15:38:22.789Z,6.46
2017-05-05T15:40:52.394Z,6.76
2017-05-05T15:43:21.120Z,8.88
2017-05-05T15:45:50.516Z,6.20
2017-05-05T15:48:18.101Z,7.14
2017-05-05T15:50:45.494Z,7.12
2017-05-05T15:53:14.050Z,6.76
2017-05-05T15:55:45.794Z,6.98
2017-05-05T15:58:14.900Z,6.32
2017-05-05T16:00:43.677Z,6.94
2017-05-05T16:03:12.982Z,51.42
2017-05-05T16:05:42.957Z,10.22
2017-05-05T16:08:39.055Z,7.26
2017-05-05T16:11:08.877Z,10.14
2017-05-05T16:13:39.912Z,5.78
2017-05-05T16:16:08.230Z,6.76
2017-05-05T16:18:36.885Z,7.08
2017-05-05T16:21:07.023Z,5.60
2017-05-05T16:23:37.511Z,6.88
2017-05-05T16:26:07.518Z,5.68
2017-05-05T16:28:36.372Z,4.80
2017-05-05T16:31:12.305Z,5.40
2017-05-05T16:33:40.609Z,5.36
2017-05-05T16:36:09.888Z,5.16
2017-05-05T16:38:42.813Z,6.16
2017-05-05T16:41:11.548Z,5.12
2017-05-05T16:43:41.213Z,4.96
2017-05-05T16:46:09.285Z,4.48
2017-05-05T16:48:37.512Z,4.52
2017-05-05T16:51:04.969Z,7.18
2017-05-05T16:53:32.343Z,5.70
2017-05-05T16:55:59.812Z,4.76
2017-05-05T16:58:28.167Z,4.80
2017-05-05T17:00:55.619Z,5.90
2017-05-05T17:03:23.354Z,4.48
2017-05-05T17:05:51.489Z,5.16
2017-05-05T17:08:18.852Z,4.10
2017-05-05T17:10:46.957Z,4.86
2017-05-05T17:13:14.344Z,4.40
2017-05-05T17:15:42.057Z,4.68
2017-05-05T17:18:10.423Z,5.20
2017-05-05T17:20:37.835Z,6.04
2017-05-05T17:23:05.317Z,4.52
2017-05-05T17:25:32.819Z,4.78
2017-05-05T17:28:00.361Z,4.68
2017-05-05T17:30:28.536Z,4.68
2017-05-05T17:32:56.901Z,4.84
2017-05-05T17:35:24.388Z,5.08
2017-05-05T17:37:51.761Z,6.46
2017-05-05T17:40:19.095Z,6.42
2017-05-05T17:42:46.710Z,7.82
2017-05-05T17:45:14.121Z,9.20
2017-05-05T17:47:41.596Z,7.40
2017-05-05T17:50:09.018Z,5.58
2017-05-05T17:52:37.125Z,5.90
2017-05-05T17:55:04.943Z,6.90
2017-05-05T17:57:33.177Z,7.00
2017-05-05T18:00:00.521Z,93.30
2017-05-05T18:02:28.116Z,20.00
2017-05-05T18:04:55.659Z,8.44
2017-05-05T18:07:23.170Z,7.36
2017-05-05T18:09:58.380Z,10.22
2017-05-05T18:12:25.880Z,8.42
2017-05-05T18:14:53.241Z,7.40
2017-05-05T18:17:20.674Z,7.15
2017-05-05T18:19:48.745Z,7.90
2017-05-05T18:22:16.883Z,8.38
2017-05-05T18:24:44.487Z,7.64
2017-05-05T18:27:12.207Z,7.48
2017-05-05T18:29:40.782Z,8.72
2017-05-05T18:32:08.465Z,8.05
2017-05-05T18:34:36.052Z,8.65
2017-05-05T18:37:03.669Z,7.80
2017-05-05T18:39:31.556Z,8.40
2017-05-05T18:41:59.410Z,8.93
2017-05-05T18:44:27.580Z,9.58
2017-05-05T18:46:55.236Z,7.83
2017-05-05T18:49:23.399Z,8.32
2017-05-05T18:51:51.338Z,8.60
2017-05-05T18:54:23.949Z,8.10
2017-05-05T18:56:51.396Z,9.42
2017-05-05T18:59:18.907Z,8.93
2017-05-05T19:01:46.357Z,9.28
2017-05-05T19:04:23.140Z,8.86
2017-05-05T19:06:50.795Z,9.54
2017-05-05T19:09:18.301Z,10.22
2017-05-05T19:11:46.010Z,9.18
2017-05-05T19:14:13.608Z,8.95
2017-05-05T19:16:41.094Z,11.23
2017-05-05T19:19:08.713Z,9.62
2017-05-05T19:21:36.987Z,8.42
2017-05-05T19:24:04.538Z,9.35
2017-05-05T19:26:32.185Z,9.68
2017-05-05T19:29:00.399Z,9.93
2017-05-05T19:31:29.921Z,8.78
2017-05-05T19:33:58.277Z,9.45
2017-05-05T19:36:25.955Z,10.13
2017-05-05T19:38:59.685Z,9.90
2017-05-05T19:41:27.537Z,301.65
2017-05-05T19:43:55.817Z,39.32
2017-05-05T19:46:23.242Z,12.62
2017-05-05T19:48:50.684Z,10.16
2017-05-05T19:51:18.279Z,9.90
2017-05-05T19:53:45.733Z,40.23
2017-05-05T19:56:13.179Z,23.00
2017-05-05T19:58:40.735Z,11.80
2017-05-05T20:01:08.181Z,11.18
2017-05-05T20:03:35.643Z,10.80
2017-05-05T20:06:03.494Z,11.73
2017-05-05T20:08:31.183Z,11.57
2017-05-05T20:10:59.440Z,12.05
2017-05-05T20:13:27.022Z,11.72
2017-05-05T20:15:55.910Z,13.03
2017-05-05T20:18:23.591Z,13.97
2017-05-05T20:20:52.015Z,12.42
2017-05-05T20:23:19.408Z,13.23
2017-05-05T20:25:46.831Z,12.77
2017-05-05T20:28:14.362Z,12.82
2017-05-05T20:30:41.885Z,13.67
2017-05-05T20:33:09.452Z,15.13
2017-05-05T20:35:37.022Z,12.88
2017-05-05T20:38:04.437Z,14.22
2017-05-05T20:40:31.966Z,14.98
2017-05-05T20:42:59.573Z,15.22
2017-05-05T20:45:27.441Z,15.00
2017-05-05T20:47:54.966Z,14.63
2017-05-05T20:50:22.638Z,15.40
2017-05-05T20:52:50.240Z,15.33
2017-05-05T20:55:17.680Z,15.04
2017-05-05T20:57:46.096Z,15.45
2017-05-05T21:00:14.392Z,14.70
2017-05-05T21:02:42.057Z,14.32
2017-05-05T21:05:09.450Z,15.92
2017-05-05T21:07:36.844Z,14.95
2017-05-05T21:10:05.388Z,15.63
2017-05-05T21:12:32.986Z,16.38
2017-05-05T21:15:00.480Z,15.03
2017-05-05T21:17:27.983Z,16.42
2017-05-05T21:19:55.500Z,15.68
2017-05-05T21:22:23.029Z,15.28
2017-05-05T21:24:50.451Z,16.85
2017-05-05T21:27:17.862Z,16.65
2017-05-05T21:29:45.528Z,15.87
2017-05-05T21:32:13.076Z,22.52
2017-05-05T21:34:43.057Z,16.67
2017-05-05T21:37:13.071Z,17.47
2017-05-05T21:39:41.260Z,15.85
2017-05-05T21:42:09.322Z,16.75
2017-05-05T21:44:36.780Z,16.93
2017-05-05T21:47:04.350Z,17.73
2017-05-05T21:49:31.800Z,17.10
2017-05-05T21:52:00.177Z,18.10
2017-05-05T21:54:28.329Z,17.55
2017-05-05T21:56:56.015Z,19.00
2017-05-05T21:59:24.303Z,18.05
2017-05-05T22:01:51.758Z,17.05
2017-05-05T22:04:19.917Z,75.42
2017-05-05T22:06:48.080Z,21.43
2017-05-05T22:09:15.489Z,17.52
2017-05-05T22:11:43.077Z,17.77
2017-05-05T22:14:10.724Z,16.40
2017-05-05T22:16:38.129Z,16.45
2017-05-05T22:19:05.527Z,17.43
2017-05-05T22:21:33.037Z,16.40
2017-05-05T22:24:01.456Z,17.12
2017-05-05T22:26:29.212Z,17.82
2017-05-05T22:28:56.743Z,15.98
2017-05-05T22:31:24.733Z,17.70
2017-05-05T22:33:52.200Z,18.50
2017-05-05T22:36:20.426Z,16.50
2017-05-05T22:38:47.819Z,17.88
2017-05-05T22:41:15.541Z,15.97
2017-05-05T22:43:43.898Z,17.17
2017-05-05T22:46:11.295Z,16.82
2017-05-05T22:48:39.589Z,17.72
2017-05-05T22:51:06.955Z,17.12
2017-05-05T22:53:34.374Z,18.42
2017-05-05T22:56:02.481Z,16.78
2017-05-05T22:58:30.028Z,16.40
2017-05-05T23:00:57.497Z,18.27
2017-05-05T23:03:24.890Z,16.28
2017-05-05T23:05:52.303Z,16.68
2017-05-05T23:08:19.922Z,18.10
2017-05-05T23:10:49.004Z,17.27
2017-05-05T23:13:17.334Z,17.07
2017-05-05T23:15:45.017Z,17.70
2017-05-05T23:18:13.188Z,16.85
2017-05-05T23:20:40.924Z,516.37
2017-05-05T23:23:08.331Z,553.40
2017-05-05T23:25:36.719Z,517.68
2017-05-05T23:28:04.146Z,24.33
2017-05-05T23:30:31.677Z,19.38
2017-05-05T23:32:59.035Z,17.75
2017-05-05T23:35:27.818Z,17.10
2017-05-05T23:37:55.719Z,18.63
2017-05-05T23:40:23.068Z,18.42
2017-05-05T23:42:50.730Z,19.20
2017-05-05T23:45:18.168Z,17.52
2017-05-05T23:47:45.601Z,16.35
2017-05-05T23:50:12.966Z,18.77
2017-05-05T23:52:40.466Z,18.08
2017-05-05T23:55:07.817Z,17.85
2017-05-05T23:57:36.009Z,18.00
